sensor_id;sensor_type;location;lat;lon;timestamp;pressure;altitude;pressure_sealevel;temperature;humidity
53526;BME280;40551;50.478;19.378;2023-05-20T00:02:23;98820.39;;;10.35;91.32
53526;BME280;40551;50.478;19.378;2023-05-20T00:04:55;98818.52;;;10.32;91.44
53526;BME280;40551;50.478;19.378;2023-05-20T00:07:26;98815.35;;;10.32;91.42
53526;BME280;40551;50.478;19.378;2023-05-20T00:09:58;98814.43;;;10.33;91.32
53526;BME280;40551;50.478;19.378;2023-05-20T00:12:30;98810.89;;;10.34;91.29
53526;BME280;40551;50.478;19.378;2023-05-20T00:15:00;98809.23;;;10.36;91.38
53526;BME280;40551;50.478;19.378;2023-05-20T00:17:32;98809.05;;;10.33;91.47
53526;BME280;40551;50.478;19.378;2023-05-20T00:20:02;98809.50;;;10.36;91.36
53526;BME280;40551;50.478;19.378;2023-05-20T00:22:34;98806.36;;;10.34;91.44
53526;BME280;40551;50.478;19.378;2023-05-20T00:25:07;98808.66;;;10.36;91.48
53526;BME280;40551;50.478;19.378;2023-05-20T00:27:39;98806.73;;;10.39;91.33
53526;BME280;40551;50.478;19.378;2023-05-20T00:30:11;98806.05;;;10.41;91.30
53526;BME280;40551;50.478;19.378;2023-05-20T00:32:42;98809.35;;;10.38;91.29
53526;BME280;40551;50.478;19.378;2023-05-20T00:35:14;98813.17;;;10.41;91.18
53526;BME280;40551;50.478;19.378;2023-05-20T00:37:44;98809.70;;;10.43;91.26
53526;BME280;40551;50.478;19.378;2023-05-20T00:40:16;98811.90;;;10.41;91.23
53526;BME280;40551;50.478;19.378;2023-05-20T00:42:48;98807.35;;;10.44;91.21
53526;BME280;40551;50.478;19.378;2023-05-20T00:45:18;98805.56;;;10.43;90.91
53526;BME280;40551;50.478;19.378;2023-05-20T00:47:49;98802.33;;;10.37;91.23
53526;BME280;40551;50.478;19.378;2023-05-20T00:50:21;98804.17;;;10.38;91.15
53526;BME280;40551;50.478;19.378;2023-05-20T00:52:53;98802.30;;;10.35;90.97
53526;BME280;40551;50.478;19.378;2023-05-20T00:55:25;98797.38;;;10.34;91.06
53526;BME280;40551;50.478;19.378;2023-05-20T00:57:57;98797.89;;;10.34;91.15
53526;BME280;40551;50.478;19.378;2023-05-20T01:00:29;98794.77;;;10.34;91.12
53526;BME280;40551;50.478;19.378;2023-05-20T01:03:00;98799.42;;;10.34;91.16
53526;BME280;40551;50.478;19.378;2023-05-20T01:05:33;98798.48;;;10.33;91.22
53526;BME280;40551;50.478;19.378;2023-05-20T01:08:05;98798.79;;;10.31;91.24
53526;BME280;40551;50.478;19.378;2023-05-20T01:10:40;98796.27;;;10.30;91.37
53526;BME280;40551;50.478;19.378;2023-05-20T01:13:17;98792.61;;;10.30;91.42
53526;BME280;40551;50.478;19.378;2023-05-20T01:15:51;98797.72;;;10.29;91.52
53526;BME280;40551;50.478;19.378;2023-05-20T01:18:23;98793.45;;;10.29;91.45
53526;BME280;40551;50.478;19.378;2023-05-20T01:20:57;98791.99;;;10.29;91.58
53526;BME280;40551;50.478;19.378;2023-05-20T01:23:38;98793.68;;;10.30;91.62
53526;BME280;40551;50.478;19.378;2023-05-20T01:26:11;98792.93;;;10.31;91.83
53526;BME280;40551;50.478;19.378;2023-05-20T01:28:43;98790.78;;;10.32;91.54
53526;BME280;40551;50.478;19.378;2023-05-20T01:31:22;98790.16;;;10.33;91.67
53526;BME280;40551;50.478;19.378;2023-05-20T01:33:56;98790.23;;;10.34;91.76
53526;BME280;40551;50.478;19.378;2023-05-20T01:36:28;98790.70;;;10.35;91.90
53526;BME280;40551;50.478;19.378;2023-05-20T01:39:02;98790.34;;;10.38;91.82
53526;BME280;40551;50.478;19.378;2023-05-20T01:41:35;98787.54;;;10.40;91.91
53526;BME280;40551;50.478;19.378;2023-05-20T01:44:08;98779.37;;;10.43;91.68
53526;BME280;40551;50.478;19.378;2023-05-20T01:46:40;98778.50;;;10.46;91.73
53526;BME280;40551;50.478;19.378;2023-05-20T01:49:12;98775.23;;;10.48;91.76
53526;BME280;40551;50.478;19.378;2023-05-20T01:51:42;98772.79;;;10.48;91.76
53526;BME280;40551;50.478;19.378;2023-05-20T01:54:14;98772.96;;;10.45;92.14
53526;BME280;40551;50.478;19.378;2023-05-20T01:56:44;98776.48;;;10.47;91.92
53526;BME280;40551;50.478;19.378;2023-05-20T01:59:15;98782.14;;;10.46;92.27
53526;BME280;40551;50.478;19.378;2023-05-20T02:01:46;98784.09;;;10.50;92.21
53526;BME280;40551;50.478;19.378;2023-05-20T02:04:18;98779.46;;;10.49;92.24
53526;BME280;40551;50.478;19.378;2023-05-20T02:06:51;98784.42;;;10.55;92.36
53526;BME280;40551;50.478;19.378;2023-05-20T02:09:25;98786.65;;;10.58;91.94
53526;BME280;40551;50.478;19.378;2023-05-20T02:11:57;98781.14;;;10.59;92.04
53526;BME280;40551;50.478;19.378;2023-05-20T02:14:29;98784.14;;;10.61;91.99
53526;BME280;40551;50.478;19.378;2023-05-20T02:17:01;98783.33;;;10.60;92.05
53526;BME280;40551;50.478;19.378;2023-05-20T02:19:31;98782.72;;;10.59;92.03
53526;BME280;40551;50.478;19.378;2023-05-20T02:22:02;98783.02;;;10.55;92.30
53526;BME280;40551;50.478;19.378;2023-05-20T02:24:34;98781.02;;;10.54;92.36
53526;BME280;40551;50.478;19.378;2023-05-20T02:27:06;98782.39;;;10.54;92.48
53526;BME280;40551;50.478;19.378;2023-05-20T02:29:37;98787.13;;;10.56;92.67
53526;BME280;40551;50.478;19.378;2023-05-20T02:32:09;98783.40;;;10.57;92.68
53526;BME280;40551;50.478;19.378;2023-05-20T02:34:41;98788.60;;;10.59;92.56
53526;BME280;40551;50.478;19.378;2023-05-20T02:37:13;98789.27;;;10.62;92.55
53526;BME280;40551;50.478;19.378;2023-05-20T02:39:45;98791.99;;;10.63;92.63
53526;BME280;40551;50.478;19.378;2023-05-20T02:42:17;98793.98;;;10.64;92.53
53526;BME280;40551;50.478;19.378;2023-05-20T02:44:49;98796.19;;;10.65;92.77
53526;BME280;40551;50.478;19.378;2023-05-20T02:47:22;98797.67;;;10.65;92.61
53526;BME280;40551;50.478;19.378;2023-05-20T02:49:54;98797.93;;;10.67;92.65
53526;BME280;40551;50.478;19.378;2023-05-20T02:52:26;98797.87;;;10.68;92.58
53526;BME280;40551;50.478;19.378;2023-05-20T02:54:58;98795.57;;;10.68;92.66
53526;BME280;40551;50.478;19.378;2023-05-20T02:57:30;98794.89;;;10.68;92.79
53526;BME280;40551;50.478;19.378;2023-05-20T03:00:04;98797.48;;;10.68;92.77
53526;BME280;40551;50.478;19.378;2023-05-20T03:02:37;98795.70;;;10.69;92.82
53526;BME280;40551;50.478;19.378;2023-05-20T03:05:11;98796.72;;;10.69;92.86
53526;BME280;40551;50.478;19.378;2023-05-20T03:07:42;98801.80;;;10.69;92.91
53526;BME280;40551;50.478;19.378;2023-05-20T03:10:15;98800.33;;;10.67;93.19
53526;BME280;40551;50.478;19.378;2023-05-20T03:12:47;98801.23;;;10.67;93.21
53526;BME280;40551;50.478;19.378;2023-05-20T03:15:17;98804.80;;;10.68;93.29
53526;BME280;40551;50.478;19.378;2023-05-20T03:17:49;98801.95;;;10.64;93.48
53526;BME280;40551;50.478;19.378;2023-05-20T03:20:21;98804.60;;;10.66;93.47
53526;BME280;40551;50.478;19.378;2023-05-20T03:22:53;98803.46;;;10.67;93.59
53526;BME280;40551;50.478;19.378;2023-05-20T03:25:25;98802.83;;;10.69;93.66
53526;BME280;40551;50.478;19.378;2023-05-20T03:27:56;98802.16;;;10.69;93.73
53526;BME280;40551;50.478;19.378;2023-05-20T03:30:29;98806.28;;;10.69;93.75
53526;BME280;40551;50.478;19.378;2023-05-20T03:33:01;98805.36;;;10.70;93.74
53526;BME280;40551;50.478;19.378;2023-05-20T03:35:33;98806.66;;;10.71;93.73
53526;BME280;40551;50.478;19.378;2023-05-20T03:38:05;98808.73;;;10.73;93.72
53526;BME280;40551;50.478;19.378;2023-05-20T03:40:37;98803.55;;;10.75;93.72
53526;BME280;40551;50.478;19.378;2023-05-20T03:43:07;98805.92;;;10.76;93.72
53526;BME280;40551;50.478;19.378;2023-05-20T03:45:39;98801.09;;;10.71;93.83
53526;BME280;40551;50.478;19.378;2023-05-20T03:48:11;98797.23;;;10.72;94.00
53526;BME280;40551;50.478;19.378;2023-05-20T03:50:43;98795.13;;;10.72;94.03
53526;BME280;40551;50.478;19.378;2023-05-20T03:53:15;98797.73;;;10.74;94.13
53526;BME280;40551;50.478;19.378;2023-05-20T03:55:48;98799.84;;;10.76;93.97
53526;BME280;40551;50.478;19.378;2023-05-20T03:58:20;98798.20;;;10.78;94.00
53526;BME280;40551;50.478;19.378;2023-05-20T04:00:52;98803.08;;;10.80;94.09
53526;BME280;40551;50.478;19.378;2023-05-20T04:03:24;98802.69;;;10.82;94.10
53526;BME280;40551;50.478;19.378;2023-05-20T04:05:58;98803.27;;;10.86;94.04
53526;BME280;40551;50.478;19.378;2023-05-20T04:08:30;98805.21;;;10.91;94.08
53526;BME280;40551;50.478;19.378;2023-05-20T04:11:01;98806.17;;;10.94;94.06
53526;BME280;40551;50.478;19.378;2023-05-20T04:13:33;98806.16;;;10.99;93.96
53526;BME280;40551;50.478;19.378;2023-05-20T04:16:06;98806.98;;;11.04;94.12
53526;BME280;40551;50.478;19.378;2023-05-20T04:18:38;98807.42;;;11.10;93.99
53526;BME280;40551;50.478;19.378;2023-05-20T04:21:10;98806.51;;;11.15;94.02
53526;BME280;40551;50.478;19.378;2023-05-20T04:23:44;98807.48;;;11.21;93.96
53526;BME280;40551;50.478;19.378;2023-05-20T04:26:15;98804.48;;;11.26;93.82
53526;BME280;40551;50.478;19.378;2023-05-20T04:28:47;98804.24;;;11.31;93.77
53526;BME280;40551;50.478;19.378;2023-05-20T04:31:19;98805.64;;;11.36;93.56
53526;BME280;40551;50.478;19.378;2023-05-20T04:33:57;98806.27;;;11.39;93.42
53526;BME280;40551;50.478;19.378;2023-05-20T04:36:29;98807.19;;;11.43;93.42
53526;BME280;40551;50.478;19.378;2023-05-20T04:39:02;98801.43;;;11.45;93.24
53526;BME280;40551;50.478;19.378;2023-05-20T04:41:34;98801.23;;;11.48;93.31
53526;BME280;40551;50.478;19.378;2023-05-20T04:44:06;98803.13;;;11.53;93.22
53526;BME280;40551;50.478;19.378;2023-05-20T04:46:38;98804.46;;;11.55;93.28
53526;BME280;40551;50.478;19.378;2023-05-20T04:49:11;98806.55;;;11.58;93.02
53526;BME280;40551;50.478;19.378;2023-05-20T04:51:43;98811.46;;;11.62;93.10
53526;BME280;40551;50.478;19.378;2023-05-20T04:54:17;98808.98;;;11.67;93.15
53526;BME280;40551;50.478;19.378;2023-05-20T04:56:49;98811.92;;;11.69;92.72
53526;BME280;40551;50.478;19.378;2023-05-20T04:59:22;98808.85;;;11.71;92.83
53526;BME280;40551;50.478;19.378;2023-05-20T05:01:53;98812.56;;;11.72;92.65
53526;BME280;40551;50.478;19.378;2023-05-20T05:04:25;98814.88;;;11.74;92.70
53526;BME280;40551;50.478;19.378;2023-05-20T05:06:57;98821.40;;;11.75;92.63
53526;BME280;40551;50.478;19.378;2023-05-20T05:09:29;98826.80;;;11.77;92.67
53526;BME280;40551;50.478;19.378;2023-05-20T05:12:06;98832.02;;;11.79;92.65
53526;BME280;40551;50.478;19.378;2023-05-20T05:14:38;98831.23;;;11.81;92.76
53526;BME280;40551;50.478;19.378;2023-05-20T05:17:10;98833.35;;;11.82;92.73
53526;BME280;40551;50.478;19.378;2023-05-20T05:19:42;98831.38;;;11.83;92.51
53526;BME280;40551;50.478;19.378;2023-05-20T05:22:13;98831.83;;;11.84;92.54
53526;BME280;40551;50.478;19.378;2023-05-20T05:24:45;98832.33;;;11.84;92.31
53526;BME280;40551;50.478;19.378;2023-05-20T05:27:18;98830.29;;;11.84;92.40
53526;BME280;40551;50.478;19.378;2023-05-20T05:29:48;98832.06;;;11.86;92.50
53526;BME280;40551;50.478;19.378;2023-05-20T05:32:20;98831.13;;;11.84;92.52
53526;BME280;40551;50.478;19.378;2023-05-20T05:34:51;98830.80;;;11.89;92.48
53526;BME280;40551;50.478;19.378;2023-05-20T05:37:23;98827.02;;;11.93;92.46
53526;BME280;40551;50.478;19.378;2023-05-20T05:39:55;98826.92;;;11.96;92.41
53526;BME280;40551;50.478;19.378;2023-05-20T05:42:27;98832.98;;;11.98;92.10
53526;BME280;40551;50.478;19.378;2023-05-20T05:44:59;98828.89;;;11.98;91.92
53526;BME280;40551;50.478;19.378;2023-05-20T05:47:31;98828.02;;;12.00;92.00
53526;BME280;40551;50.478;19.378;2023-05-20T05:50:03;98826.06;;;12.03;91.85
53526;BME280;40551;50.478;19.378;2023-05-20T05:52:35;98822.52;;;12.06;91.75
53526;BME280;40551;50.478;19.378;2023-05-20T05:55:11;98824.54;;;12.09;91.84
53526;BME280;40551;50.478;19.378;2023-05-20T05:57:44;98819.95;;;12.14;91.71
53526;BME280;40551;50.478;19.378;2023-05-20T06:00:17;98827.13;;;12.20;91.58
53526;BME280;40551;50.478;19.378;2023-05-20T06:02:50;98825.81;;;12.26;91.51
53526;BME280;40551;50.478;19.378;2023-05-20T06:05:32;98822.36;;;12.30;91.41
53526;BME280;40551;50.478;19.378;2023-05-20T06:08:05;98823.48;;;12.36;91.44
53526;BME280;40551;50.478;19.378;2023-05-20T06:10:38;98824.21;;;12.44;91.34
53526;BME280;40551;50.478;19.378;2023-05-20T06:13:09;98823.86;;;12.48;91.16
53526;BME280;40551;50.478;19.378;2023-05-20T06:15:41;98820.63;;;12.53;91.04
53526;BME280;40551;50.478;19.378;2023-05-20T06:18:15;98816.99;;;12.58;90.85
53526;BME280;40551;50.478;19.378;2023-05-20T06:20:55;98813.42;;;12.63;90.96
53526;BME280;40551;50.478;19.378;2023-05-20T06:23:27;98809.08;;;12.67;90.40
53526;BME280;40551;50.478;19.378;2023-05-20T06:26:01;98808.80;;;12.73;90.38
53526;BME280;40551;50.478;19.378;2023-05-20T06:28:34;98805.71;;;12.79;90.59
53526;BME280;40551;50.478;19.378;2023-05-20T06:31:06;98799.30;;;12.85;90.30
53526;BME280;40551;50.478;19.378;2023-05-20T06:33:38;98795.80;;;12.93;90.33
53526;BME280;40551;50.478;19.378;2023-05-20T06:36:13;98792.29;;;13.02;90.11
53526;BME280;40551;50.478;19.378;2023-05-20T06:38:45;98791.39;;;13.06;89.75
53526;BME280;40551;50.478;19.378;2023-05-20T06:41:18;98787.31;;;13.11;89.63
53526;BME280;40551;50.478;19.378;2023-05-20T06:43:53;98791.48;;;13.14;89.20
53526;BME280;40551;50.478;19.378;2023-05-20T06:46:53;98788.33;;;13.18;89.65
53526;BME280;40551;50.478;19.378;2023-05-20T06:49:25;98791.52;;;13.26;89.38
53526;BME280;40551;50.478;19.378;2023-05-20T06:51:57;98793.77;;;13.32;89.37
53526;BME280;40551;50.478;19.378;2023-05-20T06:54:29;98793.58;;;13.37;88.92
53526;BME280;40551;50.478;19.378;2023-05-20T06:57:04;98798.05;;;13.40;88.69
53526;BME280;40551;50.478;19.378;2023-05-20T06:59:35;98797.21;;;13.39;88.29
53526;BME280;40551;50.478;19.378;2023-05-20T07:02:09;98795.36;;;13.43;88.98
53526;BME280;40551;50.478;19.378;2023-05-20T07:04:41;98793.67;;;13.48;88.69
53526;BME280;40551;50.478;19.378;2023-05-20T07:07:12;98791.38;;;13.52;88.53
53526;BME280;40551;50.478;19.378;2023-05-20T07:09:47;98790.63;;;13.53;88.09
53526;BME280;40551;50.478;19.378;2023-05-20T07:12:19;98795.44;;;13.52;87.74
53526;BME280;40551;50.478;19.378;2023-05-20T07:14:51;98791.52;;;13.53;88.04
53526;BME280;40551;50.478;19.378;2023-05-20T07:17:23;98794.17;;;13.63;88.56
53526;BME280;40551;50.478;19.378;2023-05-20T07:19:56;98792.32;;;13.74;88.41
53526;BME280;40551;50.478;19.378;2023-05-20T07:22:27;98784.60;;;13.81;88.05
53526;BME280;40551;50.478;19.378;2023-05-20T07:25:15;98781.13;;;13.89;87.96
53526;BME280;40551;50.478;19.378;2023-05-20T07:27:47;98781.00;;;13.96;87.64
53526;BME280;40551;50.478;19.378;2023-05-20T07:30:19;98785.07;;;14.04;87.35
53526;BME280;40551;50.478;19.378;2023-05-20T07:33:04;98777.80;;;14.11;87.32
53526;BME280;40551;50.478;19.378;2023-05-20T07:35:36;98778.52;;;14.20;87.32
53526;BME280;40551;50.478;19.378;2023-05-20T07:38:08;98775.02;;;14.29;87.31
53526;BME280;40551;50.478;19.378;2023-05-20T07:40:41;98774.94;;;14.35;86.56
53526;BME280;40551;50.478;19.378;2023-05-20T07:43:13;98774.66;;;14.38;86.35
53526;BME280;40551;50.478;19.378;2023-05-20T07:45:45;98770.12;;;14.40;85.98
53526;BME280;40551;50.478;19.378;2023-05-20T07:48:17;98769.73;;;14.41;85.74
53526;BME280;40551;50.478;19.378;2023-05-20T07:50:48;98762.55;;;14.45;86.17
53526;BME280;40551;50.478;19.378;2023-05-20T07:53:21;98773.18;;;14.53;86.15
53526;BME280;40551;50.478;19.378;2023-05-20T07:55:53;98768.95;;;14.56;85.62
53526;BME280;40551;50.478;19.378;2023-05-20T07:58:27;98776.58;;;14.60;85.81
53526;BME280;40551;50.478;19.378;2023-05-20T08:01:00;98773.34;;;14.63;85.41
53526;BME280;40551;50.478;19.378;2023-05-20T08:03:32;98775.92;;;14.64;85.31
53526;BME280;40551;50.478;19.378;2023-05-20T08:06:09;98774.98;;;14.67;85.58
53526;BME280;40551;50.478;19.378;2023-05-20T08:08:40;98773.00;;;14.71;85.37
53526;BME280;40551;50.478;19.378;2023-05-20T08:11:17;98767.61;;;14.73;85.28
53526;BME280;40551;50.478;19.378;2023-05-20T08:13:49;98767.33;;;14.78;85.37
53526;BME280;40551;50.478;19.378;2023-05-20T08:16:21;98762.73;;;14.84;85.66
53526;BME280;40551;50.478;19.378;2023-05-20T08:18:53;98765.23;;;14.89;84.96
53526;BME280;40551;50.478;19.378;2023-05-20T08:21:25;98767.27;;;14.92;85.26
53526;BME280;40551;50.478;19.378;2023-05-20T08:23:56;98766.23;;;14.94;84.95
53526;BME280;40551;50.478;19.378;2023-05-20T08:26:28;98770.31;;;14.97;85.29
53526;BME280;40551;50.478;19.378;2023-05-20T08:29:00;98766.17;;;14.98;84.76
53526;BME280;40551;50.478;19.378;2023-05-20T08:31:33;98762.98;;;14.97;84.97
53526;BME280;40551;50.478;19.378;2023-05-20T08:34:05;98762.51;;;15.00;85.06
53526;BME280;40551;50.478;19.378;2023-05-20T08:36:37;98759.19;;;15.02;85.05
53526;BME280;40551;50.478;19.378;2023-05-20T08:39:09;98752.98;;;15.05;85.01
53526;BME280;40551;50.478;19.378;2023-05-20T08:41:41;98752.71;;;15.04;84.71
53526;BME280;40551;50.478;19.378;2023-05-20T08:44:13;98754.61;;;15.02;84.39
53526;BME280;40551;50.478;19.378;2023-05-20T08:46:45;98750.64;;;15.02;84.72
53526;BME280;40551;50.478;19.378;2023-05-20T08:49:18;98750.69;;;15.03;84.50
53526;BME280;40551;50.478;19.378;2023-05-20T08:51:50;98756.27;;;15.03;84.55
53526;BME280;40551;50.478;19.378;2023-05-20T08:54:21;98761.15;;;15.07;84.58
53526;BME280;40551;50.478;19.378;2023-05-20T08:56:54;98760.84;;;15.07;84.31
53526;BME280;40551;50.478;19.378;2023-05-20T08:59:26;98762.84;;;15.08;84.37
53526;BME280;40551;50.478;19.378;2023-05-20T09:01:58;98753.00;;;15.12;84.69
53526;BME280;40551;50.478;19.378;2023-05-20T09:04:29;98757.06;;;15.19;84.27
53526;BME280;40551;50.478;19.378;2023-05-20T09:07:01;98751.33;;;15.23;84.22
53526;BME280;40551;50.478;19.378;2023-05-20T09:09:33;98751.54;;;15.28;84.04
53526;BME280;40551;50.478;19.378;2023-05-20T09:12:06;98753.11;;;15.33;83.70
53526;BME280;40551;50.478;19.378;2023-05-20T09:14:38;98750.21;;;15.39;84.04
53526;BME280;40551;50.478;19.378;2023-05-20T09:17:10;98753.39;;;15.42;83.56
53526;BME280;40551;50.478;19.378;2023-05-20T09:19:42;98755.39;;;15.47;83.75
53526;BME280;40551;50.478;19.378;2023-05-20T09:22:14;98752.98;;;15.53;83.74
53526;BME280;40551;50.478;19.378;2023-05-20T09:24:48;98750.48;;;15.63;83.90
53526;BME280;40551;50.478;19.378;2023-05-20T09:27:20;98750.90;;;15.76;84.07
53526;BME280;40551;50.478;19.378;2023-05-20T09:29:53;98748.48;;;15.83;83.18
53526;BME280;40551;50.478;19.378;2023-05-20T09:32:25;98749.72;;;15.87;83.07
53526;BME280;40551;50.478;19.378;2023-05-20T09:34:58;98749.80;;;15.95;83.47
53526;BME280;40551;50.478;19.378;2023-05-20T09:37:30;98747.41;;;16.07;83.22
53526;BME280;40551;50.478;19.378;2023-05-20T09:40:07;98748.87;;;16.17;82.68
53526;BME280;40551;50.478;19.378;2023-05-20T09:42:40;98748.08;;;16.20;81.83
53526;BME280;40551;50.478;19.378;2023-05-20T09:45:12;98744.06;;;16.24;81.91
53526;BME280;40551;50.478;19.378;2023-05-20T09:47:45;98748.36;;;16.30;81.44
53526;BME280;40551;50.478;19.378;2023-05-20T09:50:17;98746.85;;;16.31;81.08
53526;BME280;40551;50.478;19.378;2023-05-20T09:52:51;98750.00;;;16.29;80.90
53526;BME280;40551;50.478;19.378;2023-05-20T09:55:23;98753.39;;;16.23;80.28
53526;BME280;40551;50.478;19.378;2023-05-20T09:57:56;98756.44;;;16.22;80.61
53526;BME280;40551;50.478;19.378;2023-05-20T10:00:29;98755.13;;;16.21;80.49
53526;BME280;40551;50.478;19.378;2023-05-20T10:03:01;98751.49;;;16.28;81.42
53526;BME280;40551;50.478;19.378;2023-05-20T10:05:36;98757.00;;;16.38;81.25
53526;BME280;40551;50.478;19.378;2023-05-20T10:08:29;98753.98;;;16.47;81.16
53526;BME280;40551;50.478;19.378;2023-05-20T10:11:09;98753.32;;;16.56;81.20
53526;BME280;40551;50.478;19.378;2023-05-20T10:13:58;98753.48;;;16.59;80.76
53526;BME280;40551;50.478;19.378;2023-05-20T10:16:36;98755.27;;;16.56;79.94
53526;BME280;40551;50.478;19.378;2023-05-20T10:19:19;98751.78;;;16.52;80.16
53526;BME280;40551;50.478;19.378;2023-05-20T10:22:02;98754.97;;;16.55;80.49
53526;BME280;40551;50.478;19.378;2023-05-20T10:24:36;98753.56;;;16.60;80.55
53526;BME280;40551;50.478;19.378;2023-05-20T10:27:11;98756.73;;;16.68;80.54
53526;BME280;40551;50.478;19.378;2023-05-20T10:29:45;98754.20;;;16.72;79.89
53526;BME280;40551;50.478;19.378;2023-05-20T10:32:27;98751.51;;;16.76;80.43
53526;BME280;40551;50.478;19.378;2023-05-20T10:35:03;98743.99;;;16.83;79.89
53526;BME280;40551;50.478;19.378;2023-05-20T10:37:42;98747.58;;;16.89;79.59
53526;BME280;40551;50.478;19.378;2023-05-20T10:40:17;98747.16;;;16.95;79.21
53526;BME280;40551;50.478;19.378;2023-05-20T10:42:49;98743.91;;;16.96;78.31
53526;BME280;40551;50.478;19.378;2023-05-20T10:45:28;98738.16;;;16.96;78.73
53526;BME280;40551;50.478;19.378;2023-05-20T10:48:02;98736.44;;;17.03;79.20
53526;BME280;40551;50.478;19.378;2023-05-20T10:50:36;98734.23;;;17.14;79.18
53526;BME280;40551;50.478;19.378;2023-05-20T10:53:13;98737.86;;;17.27;78.94
53526;BME280;40551;50.478;19.378;2023-05-20T10:56:02;98725.62;;;17.38;79.00
53526;BME280;40551;50.478;19.378;2023-05-20T10:58:39;98727.47;;;17.51;77.48
53526;BME280;40551;50.478;19.378;2023-05-20T11:01:10;98722.77;;;17.56;76.56
53526;BME280;40551;50.478;19.378;2023-05-20T11:03:44;98719.71;;;17.57;76.07
53526;BME280;40551;50.478;19.378;2023-05-20T11:06:17;98718.23;;;17.61;76.08
53526;BME280;40551;50.478;19.378;2023-05-20T11:08:49;98718.55;;;17.58;75.46
53526;BME280;40551;50.478;19.378;2023-05-20T11:11:20;98721.45;;;17.69;76.06
53526;BME280;40551;50.478;19.378;2023-05-20T11:13:52;98719.67;;;17.71;75.21
53526;BME280;40551;50.478;19.378;2023-05-20T11:16:24;98719.84;;;17.72;75.56
53526;BME280;40551;50.478;19.378;2023-05-20T11:18:55;98718.23;;;17.72;74.58
53526;BME280;40551;50.478;19.378;2023-05-20T11:21:27;98714.78;;;17.72;74.56
53526;BME280;40551;50.478;19.378;2023-05-20T11:23:59;98716.21;;;17.75;73.96
53526;BME280;40551;50.478;19.378;2023-05-20T11:26:31;98712.95;;;17.78;74.55
53526;BME280;40551;50.478;19.378;2023-05-20T11:29:03;98709.68;;;17.84;74.29
53526;BME280;40551;50.478;19.378;2023-05-20T11:31:37;98708.16;;;17.82;73.87
53526;BME280;40551;50.478;19.378;2023-05-20T11:34:09;98706.81;;;17.82;73.94
53526;BME280;40551;50.478;19.378;2023-05-20T11:36:42;98698.06;;;17.85;74.03
53526;BME280;40551;50.478;19.378;2023-05-20T11:39:15;98701.95;;;17.89;73.82
53526;BME280;40551;50.478;19.378;2023-05-20T11:41:47;98691.65;;;17.99;74.73
53526;BME280;40551;50.478;19.378;2023-05-20T11:44:19;98681.90;;;18.21;74.83
53526;BME280;40551;50.478;19.378;2023-05-20T11:46:57;98687.34;;;18.31;73.90
53526;BME280;40551;50.478;19.378;2023-05-20T11:49:29;98685.42;;;18.31;73.44
53526;BME280;40551;50.478;19.378;2023-05-20T11:52:03;98677.73;;;18.42;73.36
53526;BME280;40551;50.478;19.378;2023-05-20T11:54:36;98672.42;;;18.56;73.00
53526;BME280;40551;50.478;19.378;2023-05-20T11:57:09;98674.59;;;18.58;72.57
53526;BME280;40551;50.478;19.378;2023-05-20T11:59:41;98674.30;;;18.50;72.15
53526;BME280;40551;50.478;19.378;2023-05-20T12:02:14;98675.08;;;18.40;72.26
53526;BME280;40551;50.478;19.378;2023-05-20T12:04:46;98666.92;;;18.37;73.17
53526;BME280;40551;50.478;19.378;2023-05-20T12:07:17;98667.08;;;18.38;72.87
53526;BME280;40551;50.478;19.378;2023-05-20T12:09:49;98660.08;;;18.41;73.16
53526;BME280;40551;50.478;19.378;2023-05-20T12:12:21;98659.67;;;18.50;72.64
53526;BME280;40551;50.478;19.378;2023-05-20T12:14:54;98653.61;;;18.54;72.63
53526;BME280;40551;50.478;19.378;2023-05-20T12:17:25;98649.09;;;18.65;72.67
53526;BME280;40551;50.478;19.378;2023-05-20T12:19:57;98644.17;;;18.73;72.58
53526;BME280;40551;50.478;19.378;2023-05-20T12:22:29;98639.81;;;18.84;72.48
53526;BME280;40551;50.478;19.378;2023-05-20T12:25:00;98637.05;;;18.96;72.64
53526;BME280;40551;50.478;19.378;2023-05-20T12:27:32;98638.62;;;19.11;72.72
53526;BME280;40551;50.478;19.378;2023-05-20T12:30:06;98639.09;;;19.18;72.60
53526;BME280;40551;50.478;19.378;2023-05-20T12:32:39;98635.55;;;19.21;71.42
53526;BME280;40551;50.478;19.378;2023-05-20T12:35:11;98638.85;;;19.18;69.76
53526;BME280;40551;50.478;19.378;2023-05-20T12:37:43;98629.92;;;19.16;70.08
53526;BME280;40551;50.478;19.378;2023-05-20T12:40:15;98636.52;;;19.27;70.97
53526;BME280;40551;50.478;19.378;2023-05-20T12:42:46;98630.45;;;19.39;71.49
53526;BME280;40551;50.478;19.378;2023-05-20T12:45:18;98631.04;;;19.49;70.64
53526;BME280;40551;50.478;19.378;2023-05-20T12:47:50;98623.70;;;19.51;70.68
53526;BME280;40551;50.478;19.378;2023-05-20T12:50:22;98623.52;;;19.61;71.39
53526;BME280;40551;50.478;19.378;2023-05-20T12:52:54;98622.86;;;19.71;70.84
53526;BME280;40551;50.478;19.378;2023-05-20T12:55:26;98622.81;;;19.78;70.36
53526;BME280;40551;50.478;19.378;2023-05-20T12:57:57;98619.98;;;19.77;69.68
53526;BME280;40551;50.478;19.378;2023-05-20T13:00:29;98612.45;;;19.77;69.76
53526;BME280;40551;50.478;19.378;2023-05-20T13:03:01;98609.84;;;19.83;70.10
53526;BME280;40551;50.478;19.378;2023-05-20T13:05:33;98605.89;;;19.91;70.27
53526;BME280;40551;50.478;19.378;2023-05-20T13:08:05;98600.22;;;19.99;69.75
53526;BME280;40551;50.478;19.378;2023-05-20T13:10:38;98604.38;;;20.07;69.68
53526;BME280;40551;50.478;19.378;2023-05-20T13:13:10;98602.49;;;20.12;68.76
53526;BME280;40551;50.478;19.378;2023-05-20T13:15:43;98602.17;;;20.19;68.60
53526;BME280;40551;50.478;19.378;2023-05-20T13:18:15;98605.70;;;20.18;67.69
53526;BME280;40551;50.478;19.378;2023-05-20T13:20:46;98599.04;;;20.18;68.01